createdAt,value
2018-03-20T00:00:10.393Z,25.17
2018-03-20T00:02:38.754Z,28.20
2018-03-20T00:05:07.122Z,28.10
2018-03-20T00:07:35.477Z,27.63
2018-03-20T00:10:03.848Z,28.17
2018-03-20T00:12:32.215Z,30.27
2018-03-20T00:15:00.569Z,30.80
2018-03-20T00:17:28.952Z,27.83
2018-03-20T00:19:57.306Z,27.33
2018-03-20T00:22:25.658Z,27.17
2018-03-20T00:24:54.004Z,30.00
2018-03-20T00:27:22.348Z,31.10
2018-03-20T00:29:50.774Z,29.20
2018-03-20T00:32:19.104Z,30.23
2018-03-20T00:34:47.441Z,27.93
2018-03-20T00:37:15.800Z,30.23
2018-03-20T00:39:44.152Z,28.87
2018-03-20T00:42:12.504Z,30.23
2018-03-20T00:44:40.928Z,31.67
2018-03-20T00:47:09.284Z,34.20
2018-03-20T00:49:37.647Z,34.97
2018-03-20T00:52:05.970Z,36.70
2018-03-20T00:54:34.324Z,37.87
2018-03-20T00:57:02.690Z,36.87
2018-03-20T00:59:31.048Z,36.70
2018-03-20T01:01:59.428Z,38.43
2018-03-20T01:04:27.829Z,37.53
2018-03-20T01:06:56.160Z,35.73
2018-03-20T01:09:24.514Z,32.10
2018-03-20T01:11:52.979Z,36.27
2018-03-20T01:14:21.334Z,34.07
2018-03-20T01:16:49.673Z,35.07
2018-03-20T01:19:18.025Z,32.37
2018-03-20T01:21:46.367Z,34.50
2018-03-20T01:24:14.724Z,32.23
2018-03-20T01:26:43.084Z,33.63
2018-03-20T01:29:11.448Z,37.10
2018-03-20T01:31:39.791Z,40.00
2018-03-20T01:34:08.131Z,34.10
2018-03-20T01:36:36.469Z,34.27
2018-03-20T01:39:05.687Z,35.80
2018-03-20T01:41:34.032Z,38.83
2018-03-20T01:44:02.391Z,35.80
2018-03-20T01:46:30.743Z,35.90
2018-03-20T01:48:59.155Z,33.90
2018-03-20T01:51:27.506Z,33.87
2018-03-20T01:53:55.815Z,34.87
2018-03-20T01:56:24.195Z,32.00
2018-03-20T01:58:52.543Z,29.10
2018-03-20T02:01:20.906Z,31.83
2018-03-20T02:03:49.236Z,31.43
2018-03-20T02:06:17.580Z,31.10
2018-03-20T02:08:45.927Z,28.27
2018-03-20T02:11:14.272Z,31.97
2018-03-20T02:13:42.662Z,27.43
2018-03-20T02:16:11.043Z,28.10
2018-03-20T02:18:39.405Z,25.13
2018-03-20T02:21:08.670Z,26.40
2018-03-20T02:23:37.020Z,26.93
2018-03-20T02:26:05.355Z,26.60
2018-03-20T02:28:33.713Z,26.77
2018-03-20T02:31:02.084Z,27.80
2018-03-20T02:33:30.428Z,24.50
2018-03-20T02:35:58.792Z,25.83
2018-03-20T02:38:27.139Z,27.77
2018-03-20T02:40:55.494Z,26.70
2018-03-20T02:43:23.845Z,25.57
2018-03-20T02:45:52.194Z,27.87
2018-03-20T02:48:20.582Z,27.00
2018-03-20T02:50:48.913Z,26.27
2018-03-20T02:53:17.259Z,25.60
2018-03-20T02:55:45.596Z,25.90
2018-03-20T02:58:13.928Z,23.90
2018-03-20T03:00:42.317Z,25.30
2018-03-20T03:03:10.681Z,25.90
2018-03-20T03:05:39.058Z,26.53
2018-03-20T03:08:07.384Z,25.30
2018-03-20T03:10:35.752Z,26.23
2018-03-20T03:13:04.114Z,25.97
2018-03-20T03:15:32.463Z,28.40
2018-03-20T03:18:00.872Z,24.00
2018-03-20T03:20:29.190Z,23.23
2018-03-20T03:22:57.576Z,23.53
2018-03-20T03:25:25.913Z,25.00
2018-03-20T03:27:54.238Z,26.03
2018-03-20T03:30:22.554Z,24.27
2018-03-20T03:32:50.960Z,25.07
2018-03-20T03:35:19.284Z,24.57
2018-03-20T03:37:47.614Z,26.07
2018-03-20T03:40:15.945Z,25.47
2018-03-20T03:42:44.289Z,24.60
2018-03-20T03:45:12.654Z,26.63
2018-03-20T03:47:41.022Z,27.57
2018-03-20T03:50:09.420Z,24.97
2018-03-20T03:52:37.747Z,25.83
2018-03-20T03:55:06.090Z,25.07
2018-03-20T03:57:34.432Z,25.13
2018-03-20T04:00:02.776Z,25.40
2018-03-20T04:02:31.123Z,27.17
2018-03-20T04:04:59.464Z,28.93
2018-03-20T04:07:27.821Z,26.23
2018-03-20T04:09:56.163Z,26.60
2018-03-20T04:12:24.520Z,27.10
2018-03-20T04:14:52.844Z,25.10
2018-03-20T04:17:21.185Z,26.53
2018-03-20T04:19:49.522Z,27.17
2018-03-20T04:22:17.848Z,25.60
2018-03-20T04:24:46.177Z,24.87
2018-03-20T04:27:14.521Z,24.03
2018-03-20T04:29:43.040Z,26.53
2018-03-20T04:32:11.356Z,25.50
2018-03-20T04:34:40.707Z,28.83
2018-03-20T04:37:09.038Z,24.47
2018-03-20T04:39:37.406Z,24.90
2018-03-20T04:42:06.500Z,27.20
2018-03-20T04:44:34.827Z,26.03
2018-03-20T04:47:03.172Z,24.80
2018-03-20T04:49:31.509Z,24.73
2018-03-20T04:51:59.874Z,23.30
2018-03-20T04:54:28.180Z,26.17
2018-03-20T04:56:56.538Z,27.03
2018-03-20T04:59:24.876Z,26.67
2018-03-20T05:01:53.205Z,25.80
2018-03-20T05:04:21.564Z,28.80
2018-03-20T05:06:49.889Z,25.87
2018-03-20T05:09:18.218Z,23.47
2018-03-20T05:11:46.536Z,25.90
2018-03-20T05:14:14.897Z,26.57
2018-03-20T05:16:43.259Z,25.23
2018-03-20T05:19:30.268Z,24.87
2018-03-20T05:22:04.411Z,24.30
2018-03-20T05:24:32.752Z,25.70
2018-03-20T05:27:01.099Z,23.37
2018-03-20T05:29:29.440Z,25.73
2018-03-20T05:31:57.844Z,24.00
2018-03-20T05:34:26.205Z,27.90
2018-03-20T05:36:54.572Z,23.63
2018-03-20T05:39:23.165Z,24.50
2018-03-20T05:41:51.560Z,26.07
2018-03-20T05:44:19.872Z,22.30
2018-03-20T05:50:01.644Z,23.60
2018-03-20T05:52:29.988Z,24.67
2018-03-20T05:54:58.377Z,23.20
2018-03-20T05:57:26.704Z,22.67
2018-03-20T05:59:55.076Z,23.10
2018-03-20T06:02:23.455Z,24.83
2018-03-20T06:04:51.811Z,23.10
2018-03-20T06:07:20.168Z,22.80
2018-03-20T06:09:48.490Z,22.37
2018-03-20T06:12:16.816Z,22.77
2018-03-20T06:14:45.186Z,21.90
2018-03-20T06:17:13.555Z,23.03
2018-03-20T06:19:41.948Z,26.37
2018-03-20T06:22:10.379Z,25.67
2018-03-20T06:24:38.783Z,23.17
2018-03-20T06:27:07.191Z,24.40
2018-03-20T06:29:35.555Z,26.13
2018-03-20T06:32:03.916Z,25.97
2018-03-20T06:37:06.965Z,25.33
2018-03-20T06:39:37.665Z,24.33
2018-03-20T06:42:05.990Z,26.97
2018-03-20T06:44:34.401Z,24.50
2018-03-20T06:47:02.726Z,28.47
2018-03-20T06:49:31.161Z,22.70
2018-03-20T06:51:59.497Z,26.57
2018-03-20T06:54:28.005Z,29.27
2018-03-20T06:56:56.341Z,25.00
2018-03-20T06:59:24.746Z,26.83
2018-03-20T07:01:53.053Z,23.10
2018-03-20T07:04:21.421Z,28.17
2018-03-20T07:06:49.826Z,27.60
2018-03-20T07:09:18.196Z,26.80
2018-03-20T07:11:46.607Z,28.23
2018-03-20T07:14:15.111Z,29.60
2018-03-20T07:16:43.821Z,24.93
2018-03-20T07:19:12.309Z,26.13
2018-03-20T07:21:40.812Z,25.93
2018-03-20T07:24:09.216Z,26.20
2018-03-20T07:26:37.620Z,26.60
2018-03-20T07:29:05.989Z,29.10
2018-03-20T07:31:34.626Z,27.90
2018-03-20T07:34:04.070Z,26.60
2018-03-20T07:36:33.657Z,23.50
2018-03-20T07:39:02.401Z,26.73
2018-03-20T07:41:31.070Z,26.43
2018-03-20T07:43:59.771Z,26.93
2018-03-20T07:46:28.152Z,24.97
2018-03-20T07:48:56.590Z,23.87
2018-03-20T07:51:27.040Z,21.87
2018-03-20T07:53:55.449Z,23.87
2018-03-20T07:56:24.529Z,23.70
2018-03-20T07:58:52.861Z,22.67
2018-03-20T08:01:21.779Z,23.67
2018-03-20T08:03:53.930Z,21.80
2018-03-20T08:06:22.649Z,21.80
2018-03-20T08:08:51.920Z,19.50
2018-03-20T08:11:20.472Z,19.60
2018-03-20T08:13:49.056Z,20.10
2018-03-20T08:16:18.484Z,18.80
2018-03-20T08:18:46.999Z,19.30
2018-03-20T08:21:15.684Z,19.23
2018-03-20T08:23:44.381Z,17.23
2018-03-20T08:26:17.597Z,19.67
2018-03-20T08:28:46.091Z,19.40
2018-03-20T08:36:22.151Z,19.03
2018-03-20T08:38:50.549Z,19.27
2018-03-20T08:41:19.096Z,19.73
2018-03-20T08:54:11.042Z,13.50
2018-03-20T08:56:39.782Z,14.70
2018-03-20T08:59:08.194Z,16.90
2018-03-20T09:01:36.684Z,14.10
2018-03-20T09:04:11.799Z,13.53
2018-03-20T09:06:41.454Z,15.00
2018-03-20T09:09:09.957Z,16.83
2018-03-20T09:11:39.510Z,13.83
2018-03-20T09:14:08.095Z,16.33
2018-03-20T09:16:36.494Z,14.73
2018-03-20T09:19:07.304Z,13.90
2018-03-20T09:21:37.289Z,15.67
2018-03-20T09:24:05.770Z,17.23
2018-03-20T09:26:36.225Z,15.27
2018-03-20T09:29:04.724Z,15.40
2018-03-20T09:31:36.964Z,14.60
2018-03-20T09:34:05.456Z,14.23
2018-03-20T09:36:33.910Z,14.57
2018-03-20T09:39:02.458Z,14.30
2018-03-20T09:41:34.790Z,12.80
2018-03-20T09:49:08.709Z,11.90
2018-03-20T09:51:38.051Z,12.47
2018-03-20T09:54:24.084Z,12.23
2018-03-20T09:59:25.462Z,12.70
2018-03-20T10:01:54.197Z,12.23
2018-03-20T10:14:33.201Z,14.60
2018-03-20T10:17:05.982Z,11.33
2018-03-20T10:24:47.291Z,12.13
2018-03-20T10:27:16.790Z,11.97
2018-03-20T10:29:45.401Z,10.33
2018-03-20T10:32:13.858Z,13.03
2018-03-20T10:42:23.862Z,10.30
2018-03-20T10:47:49.788Z,11.43
2018-03-20T10:57:58.813Z,9.17
2018-03-20T11:05:41.373Z,9.83
2018-03-20T11:10:47.273Z,10.13
2018-03-20T11:13:16.989Z,8.53
2018-03-20T11:15:45.649Z,8.40
2018-03-20T11:23:21.450Z,8.53
2018-03-20T11:28:29.013Z,10.10
2018-03-20T11:36:04.571Z,7.90
2018-03-20T11:43:55.823Z,8.90
2018-03-20T11:46:26.266Z,9.53
2018-03-20T11:54:04.292Z,8.30
2018-03-20T11:56:32.885Z,10.97
2018-03-20T11:59:04.852Z,11.97
2018-03-20T12:06:40.192Z,8.77
2018-03-20T12:12:25.148Z,8.83
2018-03-20T12:14:52.610Z,10.00
2018-03-20T12:17:20.620Z,10.10
2018-03-20T12:19:48.318Z,9.47
2018-03-20T12:22:15.906Z,9.90
2018-03-20T12:24:44.381Z,11.00
2018-03-20T12:27:12.260Z,10.33
2018-03-20T12:29:39.681Z,9.33
2018-03-20T12:32:07.626Z,9.80
2018-03-20T12:34:34.977Z,9.63
2018-03-20T12:37:02.253Z,9.00
2018-03-20T12:39:29.844Z,8.27
2018-03-20T12:42:01.152Z,10.50
2018-03-20T12:49:39.026Z,8.10
2018-03-20T12:52:09.952Z,11.67
2018-03-20T12:54:41.078Z,10.90
2018-03-20T12:57:09.580Z,8.87
2018-03-20T12:59:37.152Z,11.03
2018-03-20T13:04:37.843Z,9.20
2018-03-20T13:07:05.534Z,9.00
2018-03-20T13:12:05.327Z,7.83
2018-03-20T13:14:34.589Z,8.50
2018-03-20T13:17:01.975Z,8.57
2018-03-20T13:22:01.003Z,8.43
2018-03-20T13:24:28.434Z,8.83
2018-03-20T13:26:56.367Z,11.97
2018-03-20T13:29:23.887Z,9.33
2018-03-20T13:31:52.049Z,10.17
2018-03-20T13:34:19.584Z,9.53
2018-03-20T13:36:47.051Z,10.43
2018-03-20T13:39:14.438Z,9.07
2018-03-20T13:41:46.692Z,10.93
2018-03-20T13:44:16.044Z,8.77
2018-03-20T13:46:44.118Z,8.60
2018-03-20T13:51:44.168Z,7.57
2018-03-20T13:54:11.565Z,8.63
2018-03-20T13:56:38.920Z,7.60
2018-03-20T13:59:06.349Z,8.20
2018-03-20T14:01:33.678Z,8.03
2018-03-20T14:04:01.057Z,10.40
2018-03-20T14:06:29.741Z,15.97
2018-03-20T14:08:57.125Z,9.70
2018-03-20T14:11:24.421Z,9.87
2018-03-20T14:13:52.520Z,13.60
2018-03-20T14:18:51.741Z,12.13
2018-03-20T14:23:51.360Z,12.87
2018-03-20T14:26:18.849Z,14.23
2018-03-20T14:28:46.350Z,12.73
2018-03-20T14:31:14.004Z,9.60
2018-03-20T14:33:41.829Z,8.40
2018-03-20T14:41:16.511Z,12.70
2018-03-20T14:43:44.691Z,11.93
2018-03-20T14:46:12.676Z,11.40
2018-03-20T14:51:12.127Z,10.03
2018-03-20T14:53:42.599Z,11.30
2018-03-20T14:56:10.775Z,9.60
2018-03-20T15:01:09.940Z,11.80
2018-03-20T15:08:40.944Z,11.17
2018-03-20T15:11:09.977Z,11.47
2018-03-20T15:13:38.313Z,11.87
2018-03-20T15:16:05.985Z,13.13
2018-03-20T15:18:33.318Z,12.10
2018-03-20T15:23:32.375Z,11.57
2018-03-20T15:25:59.851Z,12.30
2018-03-20T15:28:27.266Z,12.87
2018-03-20T15:30:54.689Z,10.60
2018-03-20T15:33:22.873Z,11.20
2018-03-20T15:38:21.918Z,11.60
2018-03-20T15:40:49.464Z,11.00
2018-03-20T15:43:19.774Z,12.70
2018-03-20T15:45:47.820Z,13.20
2018-03-20T15:48:15.762Z,12.47
2018-03-20T15:50:44.235Z,11.00
2018-03-20T15:53:11.852Z,9.90
2018-03-20T15:55:39.586Z,10.27
2018-03-20T15:58:07.646Z,11.80
2018-03-20T16:05:40.334Z,10.83
2018-03-20T16:08:09.022Z,11.30
2018-03-20T16:10:37.398Z,11.10
2018-03-20T16:15:37.418Z,12.97
2018-03-20T16:18:07.931Z,11.57
2018-03-20T16:20:35.942Z,10.67
2018-03-20T16:23:09.850Z,13.17
2018-03-20T16:28:10.731Z,11.10
2018-03-20T16:30:39.170Z,10.50
2018-03-20T16:33:09.974Z,11.00
2018-03-20T16:35:37.396Z,10.27
2018-03-20T16:38:04.752Z,11.03
2018-03-20T16:40:32.545Z,12.43
2018-03-20T16:43:03.345Z,9.07
2018-03-20T16:48:03.420Z,9.87
2018-03-20T16:50:31.557Z,9.87
2018-03-20T16:53:02.582Z,10.07
2018-03-20T16:55:29.966Z,9.87
2018-03-20T16:58:01.160Z,10.60
2018-03-20T17:00:28.778Z,10.13
2018-03-20T17:02:56.241Z,9.33
2018-03-20T17:05:25.314Z,10.07
2018-03-20T17:07:52.804Z,8.80
2018-03-20T17:10:20.253Z,9.37
2018-03-20T17:12:47.892Z,8.97
2018-03-20T17:15:15.611Z,10.90
2018-03-20T17:17:45.174Z,9.60
2018-03-20T17:22:45.473Z,7.60
2018-03-20T17:25:12.921Z,8.47
2018-03-20T17:30:12.548Z,7.93
2018-03-20T17:32:40.960Z,10.30
2018-03-20T17:35:09.263Z,8.60
2018-03-20T17:37:36.937Z,8.40
2018-03-20T17:40:04.491Z,8.17
2018-03-20T17:42:31.957Z,6.93
2018-03-20T17:47:33.208Z,7.53
2018-03-20T17:50:00.790Z,6.90
2018-03-20T17:55:03.677Z,7.50
2018-03-20T18:00:02.983Z,10.37
2018-03-20T18:05:05.211Z,7.70
2018-03-20T18:07:34.512Z,8.27
2018-03-20T18:10:02.063Z,7.67
2018-03-20T18:18:05.610Z,7.97
2018-03-20T18:20:36.704Z,7.67
2018-03-20T18:23:07.573Z,8.30
2018-03-20T18:25:36.674Z,8.43
2018-03-20T18:30:35.981Z,9.63
2018-03-20T18:33:03.376Z,7.80
2018-03-20T18:35:30.918Z,9.17
2018-03-20T18:37:58.680Z,8.10
2018-03-20T18:42:57.858Z,8.27
2018-03-20T18:47:56.906Z,9.17
2018-03-20T18:50:24.424Z,9.53
2018-03-20T18:52:51.922Z,10.47
2018-03-20T18:55:19.346Z,10.65
2018-03-20T18:57:46.717Z,10.80
2018-03-20T19:00:14.740Z,10.00
2018-03-20T19:02:42.407Z,9.67
2018-03-20T19:05:09.915Z,13.37
2018-03-20T19:07:37.400Z,13.50
2018-03-20T19:10:04.844Z,12.03
2018-03-20T19:12:32.220Z,11.90
2018-03-20T19:14:59.688Z,11.83
2018-03-20T19:17:27.035Z,14.03
2018-03-20T19:19:54.437Z,11.00
2018-03-20T19:22:22.348Z,10.10
2018-03-20T19:24:49.670Z,12.07
2018-03-20T19:27:17.034Z,11.30
2018-03-20T19:29:44.402Z,12.50
2018-03-20T19:34:47.137Z,13.67
2018-03-20T19:39:48.255Z,13.63
2018-03-20T19:42:15.634Z,13.23
2018-03-20T19:47:15.572Z,13.30
2018-03-20T19:49:43.734Z,11.73
2018-03-20T19:52:11.177Z,13.20
2018-03-20T19:57:10.392Z,14.43
2018-03-20T19:59:37.724Z,13.53
2018-03-20T20:02:05.110Z,13.67
2018-03-20T20:04:33.532Z,14.67
2018-03-20T20:07:00.919Z,14.07
2018-03-20T20:09:28.629Z,17.13
2018-03-20T20:11:56.024Z,18.27
2018-03-20T20:14:23.870Z,16.93
2018-03-20T20:16:51.375Z,18.83
2018-03-20T20:19:18.806Z,18.53
2018-03-20T20:21:46.359Z,19.80
2018-03-20T20:24:13.785Z,19.00
2018-03-20T20:26:41.244Z,22.23
2018-03-20T20:29:08.630Z,22.90
2018-03-20T20:31:36.242Z,21.10
2018-03-20T20:34:03.718Z,20.10
2018-03-20T20:36:31.049Z,21.40
2018-03-20T20:38:58.604Z,23.67
2018-03-20T20:41:26.117Z,23.93
2018-03-20T20:43:53.440Z,24.43
2018-03-20T20:46:20.912Z,25.13
2018-03-20T20:48:48.212Z,28.13
2018-03-20T20:51:15.681Z,25.77
2018-03-20T20:53:43.064Z,26.37
2018-03-20T20:56:10.572Z,29.03
2018-03-20T20:58:38.011Z,28.20
2018-03-20T21:01:05.408Z,28.73
2018-03-20T21:03:32.777Z,25.87
2018-03-20T21:06:01.168Z,26.70
2018-03-20T21:08:28.683Z,29.57
2018-03-20T21:13:27.917Z,26.33
2018-03-20T21:15:55.252Z,28.97
2018-03-20T21:18:22.971Z,29.23
2018-03-20T21:20:50.333Z,30.40
2018-03-20T21:23:17.686Z,29.63
2018-03-20T21:25:45.780Z,28.70
2018-03-20T21:28:13.146Z,29.30
2018-03-20T21:30:40.469Z,31.37
2018-03-20T21:33:08.092Z,31.60
2018-03-20T21:35:35.440Z,32.83
2018-03-20T21:38:03.266Z,33.37
2018-03-20T21:40:30.584Z,33.77
2018-03-20T21:42:58.018Z,33.47
2018-03-20T21:45:25.407Z,32.70
2018-03-20T21:47:52.826Z,35.70
2018-03-20T21:50:22.184Z,32.20
2018-03-20T21:52:49.552Z,35.57
2018-03-20T21:55:16.872Z,38.00
2018-03-20T21:57:44.214Z,38.70
2018-03-20T22:00:11.647Z,37.13
2018-03-20T22:02:39.003Z,36.87
2018-03-20T22:05:06.464Z,35.93
2018-03-20T22:07:33.788Z,34.97
2018-03-20T22:10:01.132Z,37.43
2018-03-20T22:12:28.785Z,38.83
2018-03-20T22:14:56.096Z,39.70
2018-03-20T22:17:23.410Z,37.30
2018-03-20T22:19:50.718Z,36.00
2018-03-20T22:22:18.081Z,35.93
2018-03-20T22:24:45.439Z,35.47
2018-03-20T22:27:12.784Z,36.50
2018-03-20T22:29:41.050Z,37.67
2018-03-20T22:32:08.454Z,38.57
2018-03-20T22:34:35.771Z,37.97
2018-03-20T22:37:03.108Z,38.67
2018-03-20T22:39:30.501Z,38.10
2018-03-20T22:41:57.840Z,37.90
2018-03-20T22:44:25.121Z,38.80
2018-03-20T22:46:52.472Z,39.73
2018-03-20T22:49:19.791Z,38.63
2018-03-20T22:51:47.109Z,37.17
2018-03-20T22:54:14.416Z,40.03
2018-03-20T22:56:41.826Z,36.07
2018-03-20T22:59:09.269Z,39.70
2018-03-20T23:01:36.942Z,37.60
2018-03-20T23:04:04.333Z,38.20
2018-03-20T23:06:31.696Z,37.10
2018-03-20T23:08:59.019Z,40.67
2018-03-20T23:11:26.328Z,38.67
2018-03-20T23:13:53.742Z,43.03
2018-03-20T23:16:21.065Z,40.10
2018-03-20T23:18:48.376Z,41.50
2018-03-20T23:21:15.684Z,40.83
2018-03-20T23:23:43.002Z,38.97
2018-03-20T23:26:10.308Z,43.50
2018-03-20T23:28:37.621Z,39.60
2018-03-20T23:31:04.990Z,42.77
2018-03-20T23:33:32.274Z,35.23
2018-03-20T23:35:59.592Z,38.53
2018-03-20T23:38:26.873Z,41.53
2018-03-20T23:40:54.189Z,38.60
2018-03-20T23:43:21.488Z,40.17
2018-03-20T23:45:48.792Z,42.67
2018-03-20T23:48:16.140Z,37.90
2018-03-20T23:50:43.469Z,39.70
2018-03-20T23:53:10.784Z,40.77
2018-03-20T23:55:38.085Z,39.53
2018-03-20T23:58:05.374Z,40.60
